Time;durP1;ratioP1;P1;durP2;ratioP2;P2;SDS_P1;SDS_P2;PMS_P1;PMS_P2;Temp;Humidity;BMP_temperature;BMP_pressure;BME280_temperature;BME280_humidity;BME280_pressure;Samples;Min_cycle;Max_cycle;Signal;HPM_P1;HPM_P2
2022/09/19 00:01:20;;;;;;;8.32;7.82;;;;;;;;;;5037361;28;20048;-69
2022/09/19 00:03:52;;;;;;;8.43;7.93;;;;;;;;;;5034037;28;20091;-69
2022/09/19 00:06:17;;;;;;;8.52;8.02;;;;;;;;;;5036252;28;20525;-69
2022/09/19 00:08:45;;;;;;;17.70;7.55;;;;;;;;;;5035612;28;20068;-70
2022/09/19 00:11:12;;;;;;;7.50;7.00;;;;;;;;;;5034429;28;20103;-69
2022/09/19 00:13:41;;;;;;;8.07;7.47;;;;;;;;;;5034782;28;20103;-69
2022/09/19 00:16:07;;;;;;;7.88;7.38;;;;;;;;;;5066619;28;20094;-69
2022/09/19 00:18:32;;;;;;;8.52;7.93;;;;;;;;;;5036447;28;20037;-69
2022/09/19 00:21:00;;;;;;;8.07;7.47;;;;;;;;;;5036534;28;20543;-69
2022/09/19 00:26:12;;;;;;;7.50;7.00;;;;;;;;;;5036098;28;20706;-69
2022/09/19 00:28:38;;;;;;;7.75;7.25;;;;;;;;;;5038199;28;20029;-69
2022/09/19 00:31:04;;;;;;;7.10;6.60;;;;;;;;;;5033327;28;20033;-69
2022/09/19 00:33:31;;;;;;;8.02;7.47;;;;;;;;;;5032880;28;20056;-70
2022/09/19 00:35:58;;;;;;;7.32;6.82;;;;;;;;;;5036475;28;20104;-70
2022/09/19 00:38:27;;;;;;;8.07;7.57;;;;;;;;;;5035730;28;20077;-69
2022/09/19 00:40:52;;;;;;;7.95;7.45;;;;;;;;;;5035892;28;20033;-70
2022/09/19 00:43:25;;;;;;;7.70;7.20;;;;;;;;;;5036962;28;20045;-70
2022/09/19 00:45:51;;;;;;;7.63;7.13;;;;;;;;;;5035316;28;20197;-70
2022/09/19 00:48:20;;;;;;;7.30;6.80;;;;;;;;;;5036164;28;20071;-69
2022/09/19 00:50:51;;;;;;;7.80;7.30;;;;;;;;;;5034514;28;20645;-69
2022/09/19 00:53:21;;;;;;;7.65;7.15;;;;;;;;;;5035132;28;20037;-70
2022/09/19 00:55:50;;;;;;;8.27;7.78;;;;;;;;;;5037857;28;20094;-70
2022/09/19 00:58:35;;;;;;;7.53;7.03;;;;;;;;;;5035177;28;20017;-70
2022/09/19 01:01:01;;;;;;;7.82;7.32;;;;;;;;;;5033036;28;20025;-69
2022/09/19 01:03:28;;;;;;;8.25;7.75;;;;;;;;;;5033535;28;20037;-70
2022/09/19 01:06:34;;;;;;;8.35;7.85;;;;;;;;;;5040313;28;20060;-71
2022/09/19 01:09:23;;;;;;;7.47;6.97;;;;;;;;;;5034976;28;20100;-69
2022/09/19 01:11:58;;;;;;;8.40;7.82;;;;;;;;;;5039856;28;20029;-70
2022/09/19 01:15:03;;;;;;;7.72;7.22;;;;;;;;;;5035772;28;20083;-70
2022/09/19 01:17:42;;;;;;;7.45;6.95;;;;;;;;;;5037418;28;20094;-69
2022/09/19 01:20:10;;;;;;;9.25;8.57;;;;;;;;;;5038021;28;20037;-70
2022/09/19 01:22:45;;;;;;;7.65;7.15;;;;;;;;;;5033620;28;20033;-69
2022/09/19 01:25:31;;;;;;;7.88;7.38;;;;;;;;;;5035374;28;20159;-70
2022/09/19 01:28:25;;;;;;;8.88;8.10;;;;;;;;;;5040455;28;20034;-70
2022/09/19 01:31:17;;;;;;;8.15;7.55;;;;;;;;;;5038692;28;20053;-71
2022/09/19 01:34:01;;;;;;;7.32;6.82;;;;;;;;;;5036705;28;20107;-70
2022/09/19 01:36:30;;;;;;;8.63;8.02;;;;;;;;;;5037392;28;20068;-71
2022/09/19 01:38:57;;;;;;;7.82;7.32;;;;;;;;;;5040311;28;20027;-71
2022/09/19 01:41:22;;;;;;;7.40;6.90;;;;;;;;;;5037846;28;20031;-71
2022/09/19 01:43:49;;;;;;;8.05;7.55;;;;;;;;;;5038424;28;20032;-70
2022/09/19 01:46:56;;;;;;;7.53;7.03;;;;;;;;;;5039818;28;20459;-70
2022/09/19 01:49:22;;;;;;;8.65;8.05;;;;;;;;;;5018357;28;20036;-70
2022/09/19 01:51:50;;;;;;;8.15;7.65;;;;;;;;;;5038719;28;20082;-71
2022/09/19 01:54:48;;;;;;;7.18;6.68;;;;;;;;;;5036656;28;20029;-71
2022/09/19 01:57:13;;;;;;;7.38;6.88;;;;;;;;;;5038023;28;20037;-71
2022/09/19 02:00:04;;;;;;;11.07;7.93;;;;;;;;;;5038056;28;20089;-71
2022/09/19 02:02:36;;;;;;;7.55;7.05;;;;;;;;;;5028988;28;20084;-70
2022/09/19 02:05:15;;;;;;;8.00;7.50;;;;;;;;;;5040089;28;20037;-71
2022/09/19 02:08:05;;;;;;;8.02;7.53;;;;;;;;;;5037300;28;20108;-71
2022/09/19 02:10:39;;;;;;;7.77;7.27;;;;;;;;;;5035009;28;20033;-71
2022/09/19 02:13:09;;;;;;;7.97;7.47;;;;;;;;;;5036992;28;20343;-71
2022/09/19 02:15:36;;;;;;;9.65;9.05;;;;;;;;;;5035665;28;20055;-71
2022/09/19 02:18:08;;;;;;;7.95;7.45;;;;;;;;;;5036356;28;20075;-71
2022/09/19 02:20:38;;;;;;;9.63;8.93;;;;;;;;;;5035559;28;20514;-71
2022/09/19 02:23:18;;;;;;;8.43;7.93;;;;;;;;;;5036818;28;20043;-71
2022/09/19 02:25:46;;;;;;;10.00;9.40;;;;;;;;;;5035809;28;20033;-70
2022/09/19 02:28:21;;;;;;;10.10;9.50;;;;;;;;;;5038029;28;20029;-70
2022/09/19 02:30:48;;;;;;;9.32;8.73;;;;;;;;;;5036693;28;20043;-70
2022/09/19 02:33:15;;;;;;;9.23;8.60;;;;;;;;;;5036009;28;20104;-71
2022/09/19 02:35:50;;;;;;;9.00;8.45;;;;;;;;;;5035980;28;20125;-70
2022/09/19 02:38:33;;;;;;;9.68;9.07;;;;;;;;;;5035728;28;20059;-71
2022/09/19 02:41:10;;;;;;;10.38;9.68;;;;;;;;;;5040498;28;20063;-71
2022/09/19 02:43:47;;;;;;;9.10;8.50;;;;;;;;;;5035426;28;20540;-71
2022/09/19 02:46:42;;;;;;;9.90;9.30;;;;;;;;;;5035899;28;20480;-70
2022/09/19 02:49:21;;;;;;;10.43;9.82;;;;;;;;;;5033945;28;20129;-71
2022/09/19 02:51:57;;;;;;;8.90;8.35;;;;;;;;;;5037260;28;20383;-71
2022/09/19 02:54:28;;;;;;;10.20;9.35;;;;;;;;;;5037624;28;20029;-71
2022/09/19 02:56:55;;;;;;;;;;;;;;;;;;5036684;28;20056;-72
2022/09/19 02:59:29;;;;;;;8.75;8.20;;;;;;;;;;5038498;28;19913;-71
2022/09/19 03:02:06;;;;;;;9.77;9.18;;;;;;;;;;5037640;28;20037;-71
2022/09/19 03:04:38;;;;;;;9.40;8.80;;;;;;;;;;5039113;28;20029;-71
2022/09/19 03:07:13;;;;;;;11.00;10.32;;;;;;;;;;5067330;28;20435;-70
2022/09/19 03:09:50;;;;;;;12.70;11.85;;;;;;;;;;5035471;28;20056;-71
2022/09/19 03:12:25;;;;;;;11.10;10.40;;;;;;;;;;5036785;28;20057;-71
2022/09/19 03:14:55;;;;;;;10.90;10.25;;;;;;;;;;5035598;28;20699;-72
2022/09/19 03:17:27;;;;;;;9.88;9.27;;;;;;;;;;5034439;28;20071;-72
2022/09/19 03:19:52;;;;;;;10.55;9.75;;;;;;;;;;5035365;28;20036;-72
2022/09/19 03:22:18;;;;;;;10.35;9.75;;;;;;;;;;5035222;28;20107;-72
2022/09/19 03:24:43;;;;;;;11.70;11.00;;;;;;;;;;5035184;28;20124;-71
2022/09/19 03:27:09;;;;;;;11.15;10.45;;;;;;;;;;5037250;28;20040;-72
2022/09/19 03:29:35;;;;;;;11.60;10.80;;;;;;;;;;5035159;28;20029;-71
2022/09/19 03:32:01;;;;;;;10.93;10.25;;;;;;;;;;5036747;28;20052;-72
2022/09/19 03:34:26;;;;;;;11.40;10.40;;;;;;;;;;5038426;28;20021;-72
2022/09/19 03:36:52;;;;;;;11.55;10.85;;;;;;;;;;5033644;28;20025;-71
2022/09/19 03:39:17;;;;;;;10.90;10.20;;;;;;;;;;5054798;28;20110;-71
2022/09/19 03:41:43;;;;;;;10.55;9.95;;;;;;;;;;5036068;28;20103;-72
2022/09/19 03:44:08;;;;;;;10.30;9.70;;;;;;;;;;5034614;28;20049;-71
2022/09/19 03:46:35;;;;;;;11.30;10.60;;;;;;;;;;5036324;28;20025;-72
2022/09/19 03:49:02;;;;;;;10.00;9.40;;;;;;;;;;5035765;28;20356;-72
2022/09/19 03:51:30;;;;;;;9.80;9.10;;;;;;;;;;5033776;28;20502;-71
2022/09/19 03:53:56;;;;;;;11.70;10.90;;;;;;;;;;5031534;28;20553;-71
2022/09/19 03:56:21;;;;;;;11.52;10.82;;;;;;;;;;5035494;28;20033;-72
2022/09/19 03:58:47;;;;;;;10.40;9.80;;;;;;;;;;5070823;28;20033;-71
2022/09/19 04:01:14;;;;;;;10.75;10.05;;;;;;;;;;5032167;28;20033;-72
2022/09/19 04:03:41;;;;;;;10.45;9.85;;;;;;;;;;5033888;28;20028;-72
2022/09/19 04:06:07;;;;;;;11.00;10.13;;;;;;;;;;5036433;28;20044;-72
2022/09/19 04:08:33;;;;;;;11.07;10.40;;;;;;;;;;5036447;28;20045;-72
2022/09/19 04:10:59;;;;;;;11.00;10.20;;;;;;;;;;5035738;28;20064;-71
2022/09/19 04:13:25;;;;;;;11.18;10.48;;;;;;;;;;5032533;28;20483;-70
2022/09/19 04:15:51;;;;;;;10.77;10.13;;;;;;;;;;5037224;28;20033;-71
2022/09/19 04:18:17;;;;;;;11.23;10.52;;;;;;;;;;5037137;28;20055;-70
2022/09/19 04:20:45;;;;;;;11.82;11.02;;;;;;;;;;5036628;28;20079;-71
2022/09/19 04:23:11;;;;;;;10.82;10.18;;;;;;;;;;5035187;28;20044;-73
2022/09/19 04:25:38;;;;;;;10.40;9.80;;;;;;;;;;5035712;28;20115;-72
2022/09/19 04:28:09;;;;;;;11.05;10.38;;;;;;;;;;5036644;28;20540;-72
2022/09/19 04:30:36;;;;;;;11.65;10.95;;;;;;;;;;5036329;28;20032;-72
2022/09/19 04:33:03;;;;;;;11.20;10.50;;;;;;;;;;5037238;28;20033;-71
2022/09/19 04:35:36;;;;;;;12.30;11.50;;;;;;;;;;5034209;28;20045;-70
2022/09/19 04:38:11;;;;;;;10.15;9.55;;;;;;;;;;5036152;28;20542;-73
2022/09/19 04:40:41;;;;;;;10.90;9.35;;;;;;;;;;5036791;28;20048;-71
2022/09/19 04:43:09;;;;;;;11.15;10.45;;;;;;;;;;5033351;28;20033;-71
2022/09/19 04:45:35;;;;;;;11.48;10.70;;;;;;;;;;5030835;28;20030;-71
2022/09/19 04:48:02;;;;;;;10.65;10.02;;;;;;;;;;5042492;28;20134;-71
2022/09/19 04:50:28;;;;;;;12.30;11.50;;;;;;;;;;5033111;28;20108;-71
2022/09/19 04:52:53;;;;;;;11.13;10.38;;;;;;;;;;5036317;28;20108;-70
2022/09/19 04:55:18;;;;;;;12.48;11.63;;;;;;;;;;5033182;28;20056;-70
2022/09/19 04:57:44;;;;;;;11.52;9.88;;;;;;;;;;5039136;28;20061;-71
2022/09/19 05:00:10;;;;;;;11.15;10.45;;;;;;;;;;5036002;28;20061;-69
2022/09/19 05:02:36;;;;;;;11.45;10.75;;;;;;;;;;5036080;28;20029;-72
2022/09/19 05:05:04;;;;;;;11.88;11.07;;;;;;;;;;5038520;28;20025;-71
2022/09/19 05:07:33;;;;;;;11.65;10.95;;;;;;;;;;5040466;28;20036;-73
2022/09/19 05:10:01;;;;;;;12.15;11.45;;;;;;;;;;5036241;28;20469;-72
2022/09/19 05:12:28;;;;;;;11.43;10.73;;;;;;;;;;5046292;28;20116;-72
2022/09/19 05:14:55;;;;;;;11.93;11.23;;;;;;;;;;5041699;28;20604;-73
2022/09/19 05:17:21;;;;;;;12.27;11.57;;;;;;;;;;5040099;28;20037;-74
2022/09/19 05:19:46;;;;;;;11.57;10.88;;;;;;;;;;5041923;28;20029;-75
2022/09/19 05:22:12;;;;;;;12.98;12.18;;;;;;;;;;5035075;28;20038;-73
2022/09/19 05:24:37;;;;;;;10.82;10.18;;;;;;;;;;5038439;28;20033;-73
2022/09/19 05:27:03;;;;;;;10.20;9.60;;;;;;;;;;5037372;28;20037;-74
2022/09/19 05:29:31;;;;;;;10.32;9.73;;;;;;;;;;5035712;28;20040;-73
2022/09/19 05:32:02;;;;;;;10.32;9.73;;;;;;;;;;5037358;28;20079;-73
2022/09/19 05:34:27;;;;;;;9.95;9.25;;;;;;;;;;5070261;28;20044;-74
2022/09/19 05:36:52;;;;;;;10.77;10.07;;;;;;;;;;5038275;28;20025;-73
2022/09/19 05:39:18;;;;;;;11.27;10.15;;;;;;;;;;5040942;28;20455;-74
2022/09/19 05:41:43;;;;;;;9.43;8.82;;;;;;;;;;5038858;28;20530;-74
2022/09/19 05:44:08;;;;;;;9.60;9.00;;;;;;;;;;5069595;28;20029;-73
2022/09/19 05:46:34;;;;;;;11.55;10.65;;;;;;;;;;5051883;28;20044;-73
2022/09/19 05:48:59;;;;;;;11.40;10.70;;;;;;;;;;5038378;28;20133;-73
2022/09/19 05:51:24;;;;;;;10.27;9.63;;;;;;;;;;5035081;28;20479;-73
2022/09/19 05:53:53;;;;;;;9.65;9.05;;;;;;;;;;5038271;28;20029;-71
2022/09/19 05:56:18;;;;;;;10.93;10.18;;;;;;;;;;5038458;28;20036;-73
2022/09/19 05:58:44;;;;;;;12.27;10.80;;;;;;;;;;5042195;28;20025;-73
2022/09/19 06:01:12;;;;;;;10.57;9.88;;;;;;;;;;5041478;28;20041;-73
2022/09/19 06:03:40;;;;;;;9.68;9.07;;;;;;;;;;5066979;28;20037;-73
2022/09/19 06:06:11;;;;;;;11.52;10.82;;;;;;;;;;5039123;28;20210;-73
2022/09/19 06:08:36;;;;;;;12.35;11.38;;;;;;;;;;5036344;28;20021;-72
2022/09/19 06:11:02;;;;;;;10.25;9.65;;;;;;;;;;5036009;28;20029;-74
2022/09/19 06:14:13;;;;;;;10.60;9.95;;;;;;;;;;5039316;28;20047;-74
2022/09/19 06:16:13;;;;;;;10.35;9.65;;;;;;;;;;5038629;28;20040;-74
2022/09/19 06:18:38;;;;;;;11.18;10.20;;;;;;;;;;5037097;28;20033;-73
2022/09/19 06:21:03;;;;;;;11.00;10.30;;;;;;;;;;5071739;28;20033;-73
2022/09/19 06:23:29;;;;;;;11.38;10.68;;;;;;;;;;5036249;28;20067;-73
2022/09/19 06:25:54;;;;;;;11.48;10.77;;;;;;;;;;5036598;28;20459;-73
2022/09/19 06:28:19;;;;;;;10.40;9.70;;;;;;;;;;5038023;28;20640;-73
2022/09/19 06:30:45;;;;;;;10.35;9.75;;;;;;;;;;5037134;28;20432;-73
2022/09/19 06:33:10;;;;;;;10.50;9.90;;;;;;;;;;5036039;28;20087;-73
2022/09/19 06:35:35;;;;;;;10.40;9.80;;;;;;;;;;5038572;28;20091;-73
2022/09/19 06:38:04;;;;;;;9.80;9.13;;;;;;;;;;5038484;28;20477;-73
2022/09/19 06:40:30;;;;;;;9.88;9.27;;;;;;;;;;5035625;28;20029;-72
2022/09/19 06:43:01;;;;;;;9.88;9.27;;;;;;;;;;5033254;28;20048;-71
2022/09/19 06:45:31;;;;;;;10.02;9.35;;;;;;;;;;5035734;28;20036;-73
2022/09/19 06:48:00;;;;;;;10.33;9.73;;;;;;;;;;5038087;28;20025;-71
2022/09/19 06:50:27;;;;;;;9.60;9.00;;;;;;;;;;5038729;28;20366;-72
2022/09/19 06:52:53;;;;;;;11.10;10.02;;;;;;;;;;5036936;28;20049;-72
2022/09/19 06:55:19;;;;;;;9.10;8.50;;;;;;;;;;5035841;28;20071;-72
2022/09/19 06:57:59;;;;;;;9.23;8.63;;;;;;;;;;5034447;28;20036;-73
2022/09/19 07:00:26;;;;;;;7.60;7.10;;;;;;;;;;5037781;28;20083;-72
2022/09/19 07:02:54;;;;;;;7.82;7.25;;;;;;;;;;5036593;28;20044;-73
2022/09/19 07:05:20;;;;;;;7.30;6.80;;;;;;;;;;5036676;28;20025;-72
2022/09/19 07:07:45;;;;;;;7.68;7.18;;;;;;;;;;5038523;28;20025;-72
2022/09/19 07:10:10;;;;;;;7.25;6.75;;;;;;;;;;5038524;28;20060;-71
2022/09/19 07:12:36;;;;;;;7.97;7.38;;;;;;;;;;5035706;28;20040;-72
2022/09/19 07:15:01;;;;;;;10.98;7.38;;;;;;;;;;5036740;28;20029;-73
2022/09/19 07:17:26;;;;;;;7.57;6.80;;;;;;;;;;5042777;28;20087;-73
2022/09/19 07:19:53;;;;;;;8.55;7.93;;;;;;;;;;5035228;28;20026;-72
2022/09/19 07:22:20;;;;;;;6.82;6.32;;;;;;;;;;5038155;28;20387;-73
2022/09/19 07:24:46;;;;;;;7.15;6.65;;;;;;;;;;5034619;28;20105;-72
2022/09/19 07:27:11;;;;;;;6.35;5.95;;;;;;;;;;5034359;28;20109;-72
2022/09/19 07:29:37;;;;;;;7.13;6.63;;;;;;;;;;5035943;28;20491;-72
2022/09/19 07:32:02;;;;;;;7.05;6.55;;;;;;;;;;5032525;28;20076;-70
2022/09/19 07:34:27;;;;;;;6.75;6.25;;;;;;;;;;5035298;28;20037;-71
2022/09/19 07:36:53;;;;;;;6.35;5.95;;;;;;;;;;5037857;28;20029;-74
2022/09/19 07:39:18;;;;;;;6.90;6.40;;;;;;;;;;5034870;28;20025;-73
2022/09/19 07:41:46;;;;;;;6.63;6.18;;;;;;;;;;5032654;28;20071;-73
2022/09/19 07:44:11;;;;;;;6.95;6.38;;;;;;;;;;5038687;28;20041;-73
2022/09/19 07:46:36;;;;;;;6.50;6.07;;;;;;;;;;5037568;28;20593;-72
2022/09/19 07:49:02;;;;;;;6.70;6.13;;;;;;;;;;5036113;28;20455;-72
2022/09/19 07:51:28;;;;;;;6.30;5.90;;;;;;;;;;5034159;28;20440;-72
2022/09/19 07:53:56;;;;;;;6.22;5.82;;;;;;;;;;5033809;28;20058;-72
2022/09/19 07:56:21;;;;;;;6.30;5.90;;;;;;;;;;5038458;28;20109;-73
2022/09/19 07:58:47;;;;;;;7.55;6.97;;;;;;;;;;5039135;28;20164;-71
2022/09/19 08:01:12;;;;;;;7.15;6.65;;;;;;;;;;5035413;28;20028;-74
2022/09/19 08:03:37;;;;;;;6.68;6.18;;;;;;;;;;5035203;28;20032;-74
2022/09/19 08:06:03;;;;;;;6.35;5.93;;;;;;;;;;5022399;28;20083;-74
2022/09/19 08:08:28;;;;;;;9.23;6.57;;;;;;;;;;5033446;28;20083;-73
2022/09/19 08:11:00;;;;;;;6.53;6.03;;;;;;;;;;5032264;28;20029;-74
2022/09/19 08:13:25;;;;;;;6.90;6.40;;;;;;;;;;5034854;28;20114;-73
2022/09/19 08:15:50;;;;;;;6.75;6.25;;;;;;;;;;5033126;28;20115;-72
2022/09/19 08:18:18;;;;;;;6.50;6.00;;;;;;;;;;5035388;28;20160;-73
2022/09/19 08:20:44;;;;;;;6.93;6.43;;;;;;;;;;5033563;28;20035;-74
2022/09/19 08:23:13;;;;;;;7.88;7.18;;;;;;;;;;5036910;28;20033;-76
2022/09/19 08:25:43;;;;;;;8.23;7.47;;;;;;;;;;5034736;28;20109;-73
2022/09/19 08:28:09;;;;;;;7.13;6.63;;;;;;;;;;5035712;28;20120;-73
2022/09/19 08:30:35;;;;;;;7.10;6.60;;;;;;;;;;5037357;28;20274;-72
2022/09/19 08:33:02;;;;;;;7.05;6.55;;;;;;;;;;5038298;28;20029;-74
2022/09/19 08:35:29;;;;;;;7.13;6.63;;;;;;;;;;5041188;28;20546;-72
2022/09/19 08:38:00;;;;;;;6.47;5.97;;;;;;;;;;5039769;28;20068;-72
2022/09/19 08:40:54;;;;;;;6.30;5.90;;;;;;;;;;5040895;28;20103;-72
2022/09/19 08:43:34;;;;;;;7.43;6.88;;;;;;;;;;5036981;28;20034;-71
2022/09/19 08:46:14;;;;;;;7.25;6.75;;;;;;;;;;5041228;28;20033;-74
2022/09/19 08:48:48;;;;;;;6.80;6.30;;;;;;;;;;5039564;28;20033;-73
2022/09/19 08:51:17;;;;;;;6.97;6.47;;;;;;;;;;5039906;28;20037;-74
2022/09/19 08:53:47;;;;;;;7.15;6.65;;;;;;;;;;5037729;28;20374;-72
2022/09/19 08:56:13;;;;;;;7.00;6.50;;;;;;;;;;5034827;28;20025;-70
2022/09/19 08:58:54;;;;;;;8.35;7.60;;;;;;;;;;5036238;28;20025;-73
2022/09/19 09:01:21;;;;;;;;;;;;;;;;;;5041519;28;20029;-74
2022/09/19 09:03:58;;;;;;;6.82;6.32;;;;;;;;;;5039774;28;19916;-73
2022/09/19 09:06:38;;;;;;;6.72;6.22;;;;;;;;;;5039983;28;20037;-73
2022/09/19 09:09:11;;;;;;;6.30;5.90;;;;;;;;;;5039557;28;20029;-74
2022/09/19 09:11:48;;;;;;;7.00;6.50;;;;;;;;;;5037060;28;20145;-72
2022/09/19 09:14:31;;;;;;;6.82;6.32;;;;;;;;;;5039641;28;20033;-72
2022/09/19 09:17:08;;;;;;;7.47;6.97;;;;;;;;;;5039453;28;20021;-73
2022/09/19 09:19:59;;;;;;;7.32;6.82;;;;;;;;;;5039827;28;20021;-72
2022/09/19 09:22:30;;;;;;;7.22;6.72;;;;;;;;;;5038582;28;20341;-73
2022/09/19 09:25:13;;;;;;;7.95;6.55;;;;;;;;;;5036056;28;20412;-72
2022/09/19 09:28:14;;;;;;;6.80;6.30;;;;;;;;;;5039105;28;20048;-73
2022/09/19 09:30:44;;;;;;;6.63;6.13;;;;;;;;;;5038537;28;20037;-75
2022/09/19 09:33:27;;;;;;;7.05;6.55;;;;;;;;;;5039183;28;20059;-75
2022/09/19 09:36:01;;;;;;;6.68;6.18;;;;;;;;;;5036701;28;20132;-73
2022/09/19 09:38:47;;;;;;;7.20;6.60;;;;;;;;;;5040902;28;20033;-72
2022/09/19 09:44:16;;;;;;;6.75;6.20;;;;;;;;;;5067643;28;20349;-66
2022/09/19 09:46:50;;;;;;;12.68;6.57;;;;;;;;;;5037455;28;20040;-66
2022/09/19 09:49:18;;;;;;;6.28;5.88;;;;;;;;;;5036031;28;20170;-67
2022/09/19 09:52:17;;;;;;;6.78;6.28;;;;;;;;;;5038154;28;20033;-67
2022/09/19 09:58:50;;;;;;;6.32;5.93;;;;;;;;;;5068272;28;20103;-66
2022/09/19 10:04:46;;;;;;;6.10;5.65;;;;;;;;;;5037535;28;20033;-66
2022/09/19 10:07:34;;;;;;;6.25;5.85;;;;;;;;;;5039513;28;20118;-67
2022/09/19 10:10:08;;;;;;;6.95;6.22;;;;;;;;;;5037501;28;20094;-66
2022/09/19 10:12:46;;;;;;;6.05;5.45;;;;;;;;;;5038549;28;20032;-66
2022/09/19 10:15:20;;;;;;;6.20;5.80;;;;;;;;;;5041560;28;20029;-66
2022/09/19 10:17:48;;;;;;;6.20;5.80;;;;;;;;;;5035623;28;20029;-66
2022/09/19 10:20:25;;;;;;;6.45;5.95;;;;;;;;;;5037569;28;20033;-66
2022/09/19 10:22:53;;;;;;;6.25;5.80;;;;;;;;;;5039075;28;20033;-67
2022/09/19 10:25:21;;;;;;;6.88;6.25;;;;;;;;;;5040085;28;20070;-65
2022/09/19 10:27:49;;;;;;;7.05;6.55;;;;;;;;;;5036800;28;20048;-66
2022/09/19 10:30:25;;;;;;;6.22;5.82;;;;;;;;;;5040946;28;20445;-65
2022/09/19 10:32:51;;;;;;;6.07;5.43;;;;;;;;;;5042685;28;20033;-65
2022/09/19 10:35:37;;;;;;;6.50;6.07;;;;;;;;;;5040057;28;20041;-66
2022/09/19 10:38:13;;;;;;;6.40;5.95;;;;;;;;;;5039270;28;20382;-66
2022/09/19 10:40:51;;;;;;;6.78;6.28;;;;;;;;;;5043007;28;20057;-66
2022/09/19 10:43:22;;;;;;;5.72;5.32;;;;;;;;;;5029527;28;21965;-66
2022/09/19 10:45:48;;;;;;;6.63;6.13;;;;;;;;;;5040286;28;20563;-65
2022/09/19 10:48:31;;;;;;;7.10;6.60;;;;;;;;;;5041677;28;20029;-66
2022/09/19 10:50:59;;;;;;;6.45;6.05;;;;;;;;;;5071453;28;20072;-65
2022/09/19 10:53:30;;;;;;;6.75;6.25;;;;;;;;;;5035204;28;20032;-65
2022/09/19 10:56:00;;;;;;;8.25;7.45;;;;;;;;;;5036105;28;20037;-65
2022/09/19 10:58:27;;;;;;;6.38;5.97;;;;;;;;;;5042134;28;20025;-66
2022/09/19 11:01:02;;;;;;;6.47;6.05;;;;;;;;;;5036292;28;20075;-66
2022/09/19 11:03:30;;;;;;;7.25;6.75;;;;;;;;;;5041503;28;20036;-66
2022/09/19 11:06:07;;;;;;;7.38;6.88;;;;;;;;;;5040644;28;20359;-66
2022/09/19 11:08:44;;;;;;;6.90;6.40;;;;;;;;;;5040051;28;20027;-67
2022/09/19 11:11:46;;;;;;;13.13;6.15;;;;;;;;;;5048063;28;20048;-81
2022/09/19 11:14:26;;;;;;;7.45;6.95;;;;;;;;;;5034338;28;20399;-81
2022/09/19 11:17:16;;;;;;;8.47;7.83;;;;;;;;;;5041011;28;20037;-82
2022/09/19 11:19:49;;;;;;;10.03;9.43;;;;;;;;;;5057362;28;20036;-81
2022/09/19 11:22:26;;;;;;;11.50;10.75;;;;;;;;;;5040459;28;20304;-77
2022/09/19 11:25:13;;;;;;;9.65;9.05;;;;;;;;;;5076947;28;20375;-87
2022/09/19 11:28:01;;;;;;;8.32;7.72;;;;;;;;;;5046307;28;20037;-85
2022/09/19 11:30:28;;;;;;;10.73;10.10;;;;;;;;;;5060189;28;20034;-74
2022/09/19 11:33:21;;;;;;;15.40;14.52;;;;;;;;;;5044368;28;20047;-77
2022/09/19 11:35:55;;;;;;;12.48;11.75;;;;;;;;;;5042547;28;20568;-76
2022/09/19 11:38:41;;;;;;;12.45;11.73;;;;;;;;;;5042379;28;20036;-77
2022/09/19 11:41:09;;;;;;;14.77;13.85;;;;;;;;;;5045067;28;20139;-76
2022/09/19 11:43:52;;;;;;;16.80;15.82;;;;;;;;;;5043649;28;20029;-76
2022/09/19 11:46:49;;;;;;;15.43;14.48;;;;;;;;;;5042066;28;20047;-79
2022/09/19 11:49:48;;;;;;;16.15;15.10;;;;;;;;;;5047933;28;20118;-80
2022/09/19 11:52:34;;;;;;;16.75;15.82;;;;;;;;;;5046818;28;20037;-81
2022/09/19 11:55:28;;;;;;;17.85;16.85;;;;;;;;;;5043298;28;20407;-79
2022/09/19 11:58:07;;;;;;;20.02;18.83;;;;;;;;;;5039454;28;20035;-78
2022/09/19 12:01:05;;;;;;;18.20;17.20;;;;;;;;;;5045511;28;20438;-79
2022/09/19 12:04:02;;;;;;;17.73;16.73;;;;;;;;;;5046414;28;20035;-80
2022/09/19 12:06:53;;;;;;;16.20;15.30;;;;;;;;;;5044493;28;20070;-79
2022/09/19 12:09:27;;;;;;;23.98;22.67;;;;;;;;;;5041897;28;20025;-80
2022/09/19 12:12:15;;;;;;;20.15;19.05;;;;;;;;;;5042895;28;20608;-80
2022/09/19 12:14:46;;;;;;;26.00;24.60;;;;;;;;;;5042249;28;20033;-76
2022/09/19 12:17:32;;;;;;;19.38;18.27;;;;;;;;;;5041544;28;20052;-76
2022/09/19 12:20:18;;;;;;;26.52;25.10;;;;;;;;;;5054544;28;20040;-74
2022/09/19 12:22:52;;;;;;;25.48;24.13;;;;;;;;;;5041724;28;20424;-72
2022/09/19 12:25:24;;;;;;;26.40;24.98;;;;;;;;;;5044019;28;20054;-76
2022/09/19 12:28:00;;;;;;;25.63;24.27;;;;;;;;;;5042675;28;20039;-65
2022/09/19 12:30:32;;;;;;;21.75;20.55;;;;;;;;;;5042270;28;20033;-67
2022/09/19 12:33:06;;;;;;;23.95;22.65;;;;;;;;;;5039253;28;20136;-66
2022/09/19 12:35:39;;;;;;;25.70;24.35;;;;;;;;;;5034829;28;20026;-67
2022/09/19 12:38:24;;;;;;;18.63;17.63;;;;;;;;;;5036343;28;20037;-66
2022/09/19 12:40:59;;;;;;;18.95;17.95;;;;;;;;;;5041066;28;20075;-66
2022/09/19 12:43:43;;;;;;;24.35;22.65;;;;;;;;;;5039901;28;20037;-66
2022/09/19 12:46:42;;;;;;;18.17;17.17;;;;;;;;;;5040299;28;20044;-66
2022/09/19 12:49:22;;;;;;;19.85;18.65;;;;;;;;;;5040267;28;20051;-66
2022/09/19 12:51:55;;;;;;;25.45;23.92;;;;;;;;;;5072761;28;20024;-67
2022/09/19 12:54:43;;;;;;;37.05;35.15;;;;;;;;;;5040948;28;20053;-65
2022/09/19 12:57:28;;;;;;;42.22;40.03;;;;;;;;;;5041826;28;20036;-69
2022/09/19 12:59:54;;;;;;;44.70;42.45;;;;;;;;;;5039998;28;20017;-67
2022/09/19 13:02:33;;;;;;;41.28;39.17;;;;;;;;;;5036662;28;20064;-65
2022/09/19 13:05:08;;;;;;;48.65;46.20;;;;;;;;;;5069129;28;20072;-66
2022/09/19 13:07:39;;;;;;;42.72;40.50;;;;;;;;;;5040866;28;20033;-66
2022/09/19 13:10:24;;;;;;;53.72;50.22;;;;;;;;;;5035115;28;20038;-68
2022/09/19 13:12:57;;;;;;;45.03;42.72;;;;;;;;;;5035870;28;20447;-67
2022/09/19 13:15:54;;;;;;;42.58;40.25;;;;;;;;;;5037106;28;20057;-68
2022/09/19 13:23:59;;;;;;;47.03;44.65;;;;;;;;;;5074902;28;20067;-68
2022/09/19 13:26:36;;;;;;;50.13;47.58;;;;;;;;;;5042747;28;20029;-67
2022/09/19 13:29:35;;;;;;;48.47;45.83;;;;;;;;;;5041715;28;20049;-67
2022/09/19 13:32:04;;;;;;;33.05;31.33;;;;;;;;;;5041119;28;20268;-66
2022/09/19 13:34:32;;;;;;;25.45;24.10;;;;;;;;;;5041732;28;20037;-67
2022/09/19 13:36:59;;;;;;;46.35;43.90;;;;;;;;;;5042900;28;20307;-67
2022/09/19 13:39:55;;;;;;;44.42;42.17;;;;;;;;;;5040628;28;20598;-68
2022/09/19 13:42:49;;;;;;;45.75;43.45;;;;;;;;;;5042551;28;20076;-67
2022/09/19 13:45:29;;;;;;;44.58;42.30;;;;;;;;;;5041931;28;20099;-68
2022/09/19 13:48:01;;;;;;;38.33;36.38;;;;;;;;;;5044373;28;20059;-67
2022/09/19 13:50:42;;;;;;;47.42;45.03;;;;;;;;;;5042820;28;20114;-67
2022/09/19 13:53:27;;;;;;;43.45;41.22;;;;;;;;;;5043361;28;20391;-68
2022/09/19 13:56:01;;;;;;;41.45;39.33;;;;;;;;;;5042294;28;20100;-67
2022/09/19 13:58:32;;;;;;;42.05;39.90;;;;;;;;;;5041570;28;20095;-67
2022/09/19 14:01:12;;;;;;;48.97;46.45;;;;;;;;;;5041473;28;20534;-66
2022/09/19 14:03:42;;;;;;;43.42;41.20;;;;;;;;;;5040169;28;20025;-67
2022/09/19 14:06:29;;;;;;;44.53;42.10;;;;;;;;;;5039439;28;20477;-67
2022/09/19 14:09:19;;;;;;;40.33;38.28;;;;;;;;;;5039442;28;20063;-67
2022/09/19 14:11:48;;;;;;;34.20;32.45;;;;;;;;;;5042376;28;20061;-65
2022/09/19 14:14:36;;;;;;;46.63;44.25;;;;;;;;;;5041395;28;20041;-69
2022/09/19 14:17:33;;;;;;;36.40;33.90;;;;;;;;;;5041717;28;20107;-68
2022/09/19 14:20:03;;;;;;;21.05;19.88;;;;;;;;;;5020423;28;20363;-70
2022/09/19 14:22:38;;;;;;;21.47;20.27;;;;;;;;;;5037428;28;20029;-70
2022/09/19 14:25:19;;;;;;;17.25;16.25;;;;;;;;;;5038818;28;20041;-72
2022/09/19 14:27:53;;;;;;;13.15;12.40;;;;;;;;;;5041250;28;20026;-71
2022/09/19 14:30:31;;;;;;;12.20;11.50;;;;;;;;;;5040821;28;20044;-71
2022/09/19 14:33:14;;;;;;;12.20;11.50;;;;;;;;;;5041160;28;20033;-71
2022/09/19 14:35:44;;;;;;;12.63;11.93;;;;;;;;;;5042856;28;20033;-72
2022/09/19 14:38:25;;;;;;;11.57;10.88;;;;;;;;;;5041761;28;20061;-72
2022/09/19 14:41:01;;;;;;;12.55;11.85;;;;;;;;;;5038389;28;20359;-72
2022/09/19 14:44:13;;;;;;;13.48;12.68;;;;;;;;;;5041943;28;20025;-72
2022/09/19 14:46:51;;;;;;;12.80;12.07;;;;;;;;;;5038408;28;20039;-71
2022/09/19 14:49:28;;;;;;;12.02;11.32;;;;;;;;;;5038948;28;20099;-72
2022/09/19 14:52:01;;;;;;;15.00;14.15;;;;;;;;;;5041665;28;20033;-72
2022/09/19 14:54:42;;;;;;;12.07;11.38;;;;;;;;;;5042828;28;20045;-72
2022/09/19 14:57:26;;;;;;;15.13;14.23;;;;;;;;;;5041443;28;20052;-72
2022/09/19 14:59:52;;;;;;;13.05;12.30;;;;;;;;;;5038704;28;20041;-72
2022/09/19 15:02:32;;;;;;;21.40;20.23;;;;;;;;;;5041414;28;20031;-72
2022/09/19 15:05:00;;;;;;;15.10;14.23;;;;;;;;;;5043682;28;20100;-71
2022/09/19 15:07:31;;;;;;;15.00;14.15;;;;;;;;;;5039099;28;20511;-71
2022/09/19 15:09:57;;;;;;;19.92;18.85;;;;;;;;;;5037610;28;20065;-74
2022/09/19 15:12:33;;;;;;;25.42;23.50;;;;;;;;;;5040593;28;20068;-74
2022/09/19 15:14:59;;;;;;;18.52;17.52;;;;;;;;;;5078326;28;20041;-74
2022/09/19 15:17:32;;;;;;;17.10;16.15;;;;;;;;;;5037125;28;20099;-74
2022/09/19 15:20:09;;;;;;;16.25;15.35;;;;;;;;;;5038148;28;20394;-74
2022/09/19 15:22:57;;;;;;;15.15;14.30;;;;;;;;;;5042731;28;20033;-73
2022/09/19 15:25:28;;;;;;;14.80;14.00;;;;;;;;;;5038659;28;20029;-74